sensor_id;sensor_type;location;lat;lon;timestamp;P1;durP1;ratioP1;P2;durP2;ratioP2
20124;SDS011;10223;50.862;4.360;2023-04-15T00:01:07;5.90;;;3.00;;
20124;SDS011;10223;50.862;4.360;2023-04-15T00:03:35;5.00;;;3.27;;
20124;SDS011;10223;50.862;4.360;2023-04-15T00:06:02;5.30;;;3.40;;
20124;SDS011;10223;50.862;4.360;2023-04-15T00:08:29;6.57;;;3.47;;
20124;SDS011;10223;50.862;4.360;2023-04-15T00:10:56;12.27;;;5.00;;
20124;SDS011;10223;50.862;4.360;2023-04-15T00:13:26;4.73;;;3.07;;
20124;SDS011;10223;50.862;4.360;2023-04-15T00:15:53;4.93;;;3.10;;
20124;SDS011;10223;50.862;4.360;2023-04-15T00:18:20;6.27;;;3.20;;
20124;SDS011;10223;50.862;4.360;2023-04-15T00:20:48;7.23;;;3.23;;
20124;SDS011;10223;50.862;4.360;2023-04-15T00:23:16;6.33;;;3.27;;
20124;SDS011;10223;50.862;4.360;2023-04-15T00:25:43;6.97;;;3.30;;
20124;SDS011;10223;50.862;4.360;2023-04-15T00:28:10;8.87;;;3.17;;
20124;SDS011;10223;50.862;4.360;2023-04-15T00:30:37;7.97;;;3.17;;
20124;SDS011;10223;50.862;4.360;2023-04-15T00:33:04;4.93;;;2.80;;
20124;SDS011;10223;50.862;4.360;2023-04-15T00:35:32;6.07;;;3.33;;
20124;SDS011;10223;50.862;4.360;2023-04-15T00:38:00;6.30;;;3.53;;
20124;SDS011;10223;50.862;4.360;2023-04-15T00:40:27;6.17;;;3.50;;
20124;SDS011;10223;50.862;4.360;2023-04-15T00:42:54;6.77;;;3.20;;
20124;SDS011;10223;50.862;4.360;2023-04-15T00:45:20;6.10;;;2.70;;
20124;SDS011;10223;50.862;4.360;2023-04-15T00:47:48;3.83;;;2.60;;
20124;SDS011;10223;50.862;4.360;2023-04-15T00:50:16;6.67;;;2.87;;
20124;SDS011;10223;50.862;4.360;2023-04-15T00:52:43;4.57;;;2.03;;
20124;SDS011;10223;50.862;4.360;2023-04-15T00:55:11;5.83;;;2.90;;
20124;SDS011;10223;50.862;4.360;2023-04-15T00:57:38;8.43;;;2.43;;
20124;SDS011;10223;50.862;4.360;2023-04-15T01:00:06;4.20;;;2.33;;
20124;SDS011;10223;50.862;4.360;2023-04-15T01:02:35;6.20;;;2.20;;
20124;SDS011;10223;50.862;4.360;2023-04-15T01:05:03;5.70;;;2.40;;
20124;SDS011;10223;50.862;4.360;2023-04-15T01:07:30;4.83;;;2.73;;
20124;SDS011;10223;50.862;4.360;2023-04-15T01:09:57;5.07;;;2.83;;
20124;SDS011;10223;50.862;4.360;2023-04-15T01:12:26;5.07;;;2.60;;
20124;SDS011;10223;50.862;4.360;2023-04-15T01:14:54;3.53;;;2.40;;
20124;SDS011;10223;50.862;4.360;2023-04-15T01:17:21;6.43;;;2.83;;
20124;SDS011;10223;50.862;4.360;2023-04-15T01:19:49;7.27;;;3.10;;
20124;SDS011;10223;50.862;4.360;2023-04-15T01:22:16;7.23;;;2.80;;
20124;SDS011;10223;50.862;4.360;2023-04-15T01:24:44;4.30;;;2.60;;
20124;SDS011;10223;50.862;4.360;2023-04-15T01:27:21;4.63;;;2.70;;
20124;SDS011;10223;50.862;4.360;2023-04-15T01:29:48;7.50;;;2.60;;
20124;SDS011;10223;50.862;4.360;2023-04-15T01:32:16;6.03;;;2.40;;
20124;SDS011;10223;50.862;4.360;2023-04-15T01:34:42;4.13;;;2.17;;
20124;SDS011;10223;50.862;4.360;2023-04-15T01:37:09;4.17;;;2.60;;
20124;SDS011;10223;50.862;4.360;2023-04-15T01:39:36;4.10;;;2.67;;
20124;SDS011;10223;50.862;4.360;2023-04-15T01:42:03;8.13;;;2.50;;
20124;SDS011;10223;50.862;4.360;2023-04-15T01:44:32;4.13;;;2.00;;
20124;SDS011;10223;50.862;4.360;2023-04-15T01:46:59;5.33;;;2.10;;
20124;SDS011;10223;50.862;4.360;2023-04-15T01:49:26;4.53;;;2.10;;
20124;SDS011;10223;50.862;4.360;2023-04-15T01:51:53;3.53;;;1.80;;
20124;SDS011;10223;50.862;4.360;2023-04-15T01:54:20;3.27;;;2.00;;
20124;SDS011;10223;50.862;4.360;2023-04-15T01:56:47;7.90;;;2.10;;
20124;SDS011;10223;50.862;4.360;2023-04-15T01:59:13;4.77;;;1.97;;
20124;SDS011;10223;50.862;4.360;2023-04-15T02:01:42;3.67;;;2.10;;
20124;SDS011;10223;50.862;4.360;2023-04-15T02:04:09;4.60;;;2.40;;
20124;SDS011;10223;50.862;4.360;2023-04-15T02:06:40;7.17;;;2.70;;
20124;SDS011;10223;50.862;4.360;2023-04-15T02:09:07;6.83;;;3.63;;
20124;SDS011;10223;50.862;4.360;2023-04-15T02:11:34;6.93;;;3.87;;
20124;SDS011;10223;50.862;4.360;2023-04-15T02:14:03;13.47;;;3.20;;
20124;SDS011;10223;50.862;4.360;2023-04-15T02:16:30;4.93;;;2.70;;
20124;SDS011;10223;50.862;4.360;2023-04-15T02:18:59;11.90;;;5.13;;
20124;SDS011;10223;50.862;4.360;2023-04-15T02:21:27;9.70;;;4.07;;
20124;SDS011;10223;50.862;4.360;2023-04-15T02:23:54;15.40;;;5.93;;
20124;SDS011;10223;50.862;4.360;2023-04-15T02:26:21;14.30;;;5.77;;
20124;SDS011;10223;50.862;4.360;2023-04-15T02:28:49;16.63;;;7.27;;
20124;SDS011;10223;50.862;4.360;2023-04-15T02:31:16;21.33;;;8.47;;
20124;SDS011;10223;50.862;4.360;2023-04-15T02:33:43;19.20;;;9.17;;
20124;SDS011;10223;50.862;4.360;2023-04-15T02:36:12;21.43;;;9.33;;
20124;SDS011;10223;50.862;4.360;2023-04-15T02:38:39;30.67;;;12.93;;
20124;SDS011;10223;50.862;4.360;2023-04-15T02:41:07;24.67;;;10.07;;
20124;SDS011;10223;50.862;4.360;2023-04-15T02:43:34;23.33;;;10.00;;
20124;SDS011;10223;50.862;4.360;2023-04-15T02:46:02;17.07;;;8.33;;
20124;SDS011;10223;50.862;4.360;2023-04-15T02:48:29;19.67;;;8.57;;
20124;SDS011;10223;50.862;4.360;2023-04-15T02:51:09;22.57;;;10.17;;
20124;SDS011;10223;50.862;4.360;2023-04-15T02:53:38;22.50;;;10.50;;
20124;SDS011;10223;50.862;4.360;2023-04-15T02:56:07;26.10;;;9.87;;
20124;SDS011;10223;50.862;4.360;2023-04-15T02:58:35;23.50;;;10.97;;
20124;SDS011;10223;50.862;4.360;2023-04-15T03:01:02;26.97;;;9.70;;
20124;SDS011;10223;50.862;4.360;2023-04-15T03:03:29;24.53;;;10.57;;
20124;SDS011;10223;50.862;4.360;2023-04-15T03:05:56;27.90;;;11.13;;
20124;SDS011;10223;50.862;4.360;2023-04-15T03:08:25;24.80;;;10.87;;
20124;SDS011;10223;50.862;4.360;2023-04-15T03:10:51;22.00;;;10.30;;
20124;SDS011;10223;50.862;4.360;2023-04-15T03:13:18;23.70;;;10.93;;
20124;SDS011;10223;50.862;4.360;2023-04-15T03:15:48;24.27;;;11.20;;
20124;SDS011;10223;50.862;4.360;2023-04-15T03:18:17;27.57;;;10.97;;
20124;SDS011;10223;50.862;4.360;2023-04-15T03:20:44;25.40;;;10.70;;
20124;SDS011;10223;50.862;4.360;2023-04-15T03:23:11;26.80;;;10.80;;
20124;SDS011;10223;50.862;4.360;2023-04-15T03:25:39;25.57;;;10.83;;
20124;SDS011;10223;50.862;4.360;2023-04-15T03:28:06;23.53;;;11.30;;
20124;SDS011;10223;50.862;4.360;2023-04-15T03:30:33;23.33;;;11.03;;
20124;SDS011;10223;50.862;4.360;2023-04-15T03:33:00;20.83;;;10.17;;
20124;SDS011;10223;50.862;4.360;2023-04-15T03:35:27;22.33;;;9.70;;
20124;SDS011;10223;50.862;4.360;2023-04-15T03:37:54;27.10;;;9.97;;
20124;SDS011;10223;50.862;4.360;2023-04-15T03:40:21;21.70;;;9.67;;
20124;SDS011;10223;50.862;4.360;2023-04-15T03:42:49;22.50;;;9.77;;
20124;SDS011;10223;50.862;4.360;2023-04-15T03:45:16;19.93;;;9.53;;
20124;SDS011;10223;50.862;4.360;2023-04-15T03:47:43;18.80;;;8.47;;
20124;SDS011;10223;50.862;4.360;2023-04-15T03:50:10;16.10;;;8.03;;
20124;SDS011;10223;50.862;4.360;2023-04-15T03:52:37;14.87;;;7.30;;
20124;SDS011;10223;50.862;4.360;2023-04-15T03:55:04;18.33;;;8.57;;
20124;SDS011;10223;50.862;4.360;2023-04-15T03:57:32;17.40;;;8.10;;
20124;SDS011;10223;50.862;4.360;2023-04-15T04:00:04;14.27;;;7.63;;
20124;SDS011;10223;50.862;4.360;2023-04-15T04:02:31;18.07;;;7.33;;
20124;SDS011;10223;50.862;4.360;2023-04-15T04:05:01;12.37;;;7.70;;
20124;SDS011;10223;50.862;4.360;2023-04-15T04:07:28;13.13;;;6.67;;
20124;SDS011;10223;50.862;4.360;2023-04-15T04:09:56;12.90;;;6.93;;
20124;SDS011;10223;50.862;4.360;2023-04-15T04:12:23;14.57;;;7.53;;
20124;SDS011;10223;50.862;4.360;2023-04-15T04:14:50;10.83;;;6.60;;
20124;SDS011;10223;50.862;4.360;2023-04-15T04:17:20;12.60;;;7.17;;
20124;SDS011;10223;50.862;4.360;2023-04-15T04:19:47;14.27;;;7.00;;
20124;SDS011;10223;50.862;4.360;2023-04-15T04:22:14;10.00;;;6.67;;
20124;SDS011;10223;50.862;4.360;2023-04-15T04:24:41;10.87;;;7.00;;
20124;SDS011;10223;50.862;4.360;2023-04-15T04:27:08;13.03;;;6.77;;
20124;SDS011;10223;50.862;4.360;2023-04-15T04:29:35;12.97;;;7.00;;
20124;SDS011;10223;50.862;4.360;2023-04-15T04:32:02;10.23;;;6.40;;
20124;SDS011;10223;50.862;4.360;2023-04-15T04:34:44;15.43;;;7.40;;
20124;SDS011;10223;50.862;4.360;2023-04-15T04:37:11;12.37;;;6.33;;
20124;SDS011;10223;50.862;4.360;2023-04-15T04:39:38;12.53;;;6.60;;
20124;SDS011;10223;50.862;4.360;2023-04-15T04:42:05;13.43;;;6.73;;
20124;SDS011;10223;50.862;4.360;2023-04-15T04:44:32;11.33;;;5.77;;
20124;SDS011;10223;50.862;4.360;2023-04-15T04:46:59;12.50;;;5.27;;
20124;SDS011;10223;50.862;4.360;2023-04-15T04:49:26;12.10;;;6.10;;
20124;SDS011;10223;50.862;4.360;2023-04-15T04:51:54;11.50;;;5.83;;
20124;SDS011;10223;50.862;4.360;2023-04-15T04:54:21;9.83;;;6.10;;
20124;SDS011;10223;50.862;4.360;2023-04-15T04:56:48;13.03;;;6.80;;
20124;SDS011;10223;50.862;4.360;2023-04-15T04:59:15;9.37;;;6.13;;
20124;SDS011;10223;50.862;4.360;2023-04-15T05:01:42;11.17;;;6.50;;
20124;SDS011;10223;50.862;4.360;2023-04-15T05:04:09;11.87;;;6.27;;
20124;SDS011;10223;50.862;4.360;2023-04-15T05:06:35;13.27;;;6.40;;
20124;SDS011;10223;50.862;4.360;2023-04-15T05:09:04;13.17;;;7.03;;
20124;SDS011;10223;50.862;4.360;2023-04-15T05:11:31;10.00;;;6.27;;
20124;SDS011;10223;50.862;4.360;2023-04-15T05:13:58;10.97;;;5.60;;
20124;SDS011;10223;50.862;4.360;2023-04-15T05:16:26;12.27;;;6.10;;
20124;SDS011;10223;50.862;4.360;2023-04-15T05:18:53;13.40;;;6.77;;
20124;SDS011;10223;50.862;4.360;2023-04-15T05:21:20;12.00;;;6.00;;
20124;SDS011;10223;50.862;4.360;2023-04-15T05:23:47;9.97;;;6.03;;
20124;SDS011;10223;50.862;4.360;2023-04-15T05:26:16;13.13;;;6.23;;
20124;SDS011;10223;50.862;4.360;2023-04-15T05:28:43;12.73;;;5.93;;
20124;SDS011;10223;50.862;4.360;2023-04-15T05:31:10;8.90;;;5.77;;
20124;SDS011;10223;50.862;4.360;2023-04-15T05:33:38;11.80;;;6.67;;
20124;SDS011;10223;50.862;4.360;2023-04-15T05:36:05;12.67;;;5.80;;
20124;SDS011;10223;50.862;4.360;2023-04-15T05:38:32;10.40;;;6.10;;
20124;SDS011;10223;50.862;4.360;2023-04-15T05:40:59;10.13;;;6.10;;
20124;SDS011;10223;50.862;4.360;2023-04-15T05:43:27;11.33;;;6.33;;
20124;SDS011;10223;50.862;4.360;2023-04-15T05:45:55;8.77;;;5.80;;
20124;SDS011;10223;50.862;4.360;2023-04-15T05:48:22;10.17;;;5.70;;
20124;SDS011;10223;50.862;4.360;2023-04-15T05:50:49;10.37;;;6.07;;
20124;SDS011;10223;50.862;4.360;2023-04-15T05:53:15;13.53;;;6.33;;
20124;SDS011;10223;50.862;4.360;2023-04-15T05:55:42;10.77;;;5.87;;
20124;SDS011;10223;50.862;4.360;2023-04-15T05:58:09;11.10;;;6.30;;
20124;SDS011;10223;50.862;4.360;2023-04-15T06:00:38;16.20;;;6.20;;
20124;SDS011;10223;50.862;4.360;2023-04-15T06:03:05;13.93;;;6.43;;
20124;SDS011;10223;50.862;4.360;2023-04-15T06:05:31;11.53;;;6.00;;
20124;SDS011;10223;50.862;4.360;2023-04-15T06:07:58;10.13;;;6.43;;
20124;SDS011;10223;50.862;4.360;2023-04-15T06:10:39;11.87;;;6.53;;
20124;SDS011;10223;50.862;4.360;2023-04-15T06:13:06;11.97;;;6.33;;
20124;SDS011;10223;50.862;4.360;2023-04-15T06:15:34;13.87;;;6.67;;
20124;SDS011;10223;50.862;4.360;2023-04-15T06:18:02;10.70;;;6.03;;
20124;SDS011;10223;50.862;4.360;2023-04-15T06:20:29;12.57;;;6.30;;
20124;SDS011;10223;50.862;4.360;2023-04-15T06:22:56;9.53;;;6.13;;
20124;SDS011;10223;50.862;4.360;2023-04-15T06:25:23;13.83;;;6.40;;
20124;SDS011;10223;50.862;4.360;2023-04-15T06:27:50;11.23;;;5.93;;
20124;SDS011;10223;50.862;4.360;2023-04-15T06:30:17;14.10;;;6.07;;
20124;SDS011;10223;50.862;4.360;2023-04-15T06:32:44;11.13;;;6.10;;
20124;SDS011;10223;50.862;4.360;2023-04-15T06:35:13;10.80;;;6.33;;
20124;SDS011;10223;50.862;4.360;2023-04-15T06:37:40;14.47;;;6.40;;
20124;SDS011;10223;50.862;4.360;2023-04-15T06:40:07;11.37;;;6.57;;
20124;SDS011;10223;50.862;4.360;2023-04-15T06:42:35;21.03;;;6.80;;
20124;SDS011;10223;50.862;4.360;2023-04-15T06:45:02;17.87;;;6.23;;
20124;SDS011;10223;50.862;4.360;2023-04-15T06:47:30;12.53;;;6.00;;
20124;SDS011;10223;50.862;4.360;2023-04-15T06:49:57;11.67;;;6.10;;
20124;SDS011;10223;50.862;4.360;2023-04-15T06:52:26;10.70;;;6.50;;
20124;SDS011;10223;50.862;4.360;2023-04-15T06:54:52;19.43;;;5.80;;
20124;SDS011;10223;50.862;4.360;2023-04-15T06:57:20;13.67;;;6.73;;
20124;SDS011;10223;50.862;4.360;2023-04-15T06:59:47;12.37;;;7.07;;
20124;SDS011;10223;50.862;4.360;2023-04-15T07:02:13;11.70;;;5.90;;
20124;SDS011;10223;50.862;4.360;2023-04-15T07:04:40;11.23;;;5.67;;
20124;SDS011;10223;50.862;4.360;2023-04-15T07:07:07;16.67;;;6.17;;
20124;SDS011;10223;50.862;4.360;2023-04-15T07:09:35;13.07;;;5.93;;
20124;SDS011;10223;50.862;4.360;2023-04-15T07:12:02;11.47;;;5.93;;
20124;SDS011;10223;50.862;4.360;2023-04-15T07:14:29;16.07;;;6.63;;
20124;SDS011;10223;50.862;4.360;2023-04-15T07:16:56;13.33;;;6.43;;
20124;SDS011;10223;50.862;4.360;2023-04-15T07:19:23;16.50;;;6.77;;
20124;SDS011;10223;50.862;4.360;2023-04-15T07:21:50;11.70;;;7.00;;
20124;SDS011;10223;50.862;4.360;2023-04-15T07:24:17;13.63;;;7.43;;
20124;SDS011;10223;50.862;4.360;2023-04-15T07:26:46;14.73;;;6.67;;
20124;SDS011;10223;50.862;4.360;2023-04-15T07:29:13;12.70;;;7.37;;
20124;SDS011;10223;50.862;4.360;2023-04-15T07:31:40;13.83;;;6.90;;
20124;SDS011;10223;50.862;4.360;2023-04-15T07:34:07;12.40;;;6.63;;
20124;SDS011;10223;50.862;4.360;2023-04-15T07:36:34;11.70;;;6.60;;
20124;SDS011;10223;50.862;4.360;2023-04-15T07:39:02;14.17;;;7.10;;
20124;SDS011;10223;50.862;4.360;2023-04-15T07:41:43;15.23;;;7.00;;
20124;SDS011;10223;50.862;4.360;2023-04-15T07:44:12;12.57;;;7.30;;
20124;SDS011;10223;50.862;4.360;2023-04-15T07:46:39;13.93;;;8.67;;
20124;SDS011;10223;50.862;4.360;2023-04-15T07:49:06;12.30;;;7.50;;
20124;SDS011;10223;50.862;4.360;2023-04-15T07:51:33;13.07;;;7.60;;
20124;SDS011;10223;50.862;4.360;2023-04-15T07:54:00;16.37;;;7.20;;
20124;SDS011;10223;50.862;4.360;2023-04-15T07:56:27;10.60;;;7.13;;
20124;SDS011;10223;50.862;4.360;2023-04-15T07:58:54;14.33;;;7.93;;
20124;SDS011;10223;50.862;4.360;2023-04-15T08:01:22;13.40;;;8.10;;
20124;SDS011;10223;50.862;4.360;2023-04-15T08:03:49;14.93;;;8.43;;
20124;SDS011;10223;50.862;4.360;2023-04-15T08:06:19;13.83;;;8.47;;
20124;SDS011;10223;50.862;4.360;2023-04-15T08:08:46;21.70;;;8.37;;
20124;SDS011;10223;50.862;4.360;2023-04-15T08:11:13;13.87;;;9.00;;
20124;SDS011;10223;50.862;4.360;2023-04-15T08:13:41;14.90;;;8.30;;
20124;SDS011;10223;50.862;4.360;2023-04-15T08:16:12;15.90;;;8.70;;
20124;SDS011;10223;50.862;4.360;2023-04-15T08:18:44;18.80;;;8.87;;
20124;SDS011;10223;50.862;4.360;2023-04-15T08:21:11;19.00;;;9.60;;
20124;SDS011;10223;50.862;4.360;2023-04-15T08:23:38;13.80;;;8.37;;
20124;SDS011;10223;50.862;4.360;2023-04-15T08:26:08;12.93;;;8.70;;
20124;SDS011;10223;50.862;4.360;2023-04-15T08:28:35;14.83;;;8.93;;
20124;SDS011;10223;50.862;4.360;2023-04-15T08:31:04;14.67;;;8.97;;
20124;SDS011;10223;50.862;4.360;2023-04-15T08:33:31;24.70;;;12.80;;
20124;SDS011;10223;50.862;4.360;2023-04-15T08:36:00;14.50;;;9.77;;
20124;SDS011;10223;50.862;4.360;2023-04-15T08:38:27;21.23;;;10.57;;
20124;SDS011;10223;50.862;4.360;2023-04-15T08:40:54;19.90;;;9.37;;
20124;SDS011;10223;50.862;4.360;2023-04-15T08:43:26;16.40;;;9.80;;
20124;SDS011;10223;50.862;4.360;2023-04-15T08:45:54;17.53;;;9.43;;
20124;SDS011;10223;50.862;4.360;2023-04-15T08:48:24;16.23;;;10.47;;
20124;SDS011;10223;50.862;4.360;2023-04-15T08:50:55;22.33;;;11.00;;
20124;SDS011;10223;50.862;4.360;2023-04-15T08:53:25;15.03;;;9.93;;
20124;SDS011;10223;50.862;4.360;2023-04-15T08:55:54;14.60;;;9.23;;
20124;SDS011;10223;50.862;4.360;2023-04-15T08:58:23;21.30;;;9.50;;
20124;SDS011;10223;50.862;4.360;2023-04-15T09:00:50;16.10;;;9.20;;
20124;SDS011;10223;50.862;4.360;2023-04-15T09:03:18;19.23;;;9.53;;
20124;SDS011;10223;50.862;4.360;2023-04-15T09:05:47;21.90;;;9.37;;
20124;SDS011;10223;50.862;4.360;2023-04-15T09:08:16;16.07;;;9.13;;
20124;SDS011;10223;50.862;4.360;2023-04-15T09:10:44;16.37;;;8.53;;
20124;SDS011;10223;50.862;4.360;2023-04-15T09:13:11;17.53;;;8.87;;
20124;SDS011;10223;50.862;4.360;2023-04-15T09:15:44;13.10;;;8.80;;
20124;SDS011;10223;50.862;4.360;2023-04-15T09:18:11;14.55;;;8.77;;
20124;SDS011;10223;50.862;4.360;2023-04-15T09:20:39;14.77;;;8.55;;
20124;SDS011;10223;50.862;4.360;2023-04-15T09:23:10;14.93;;;8.52;;
20124;SDS011;10223;50.862;4.360;2023-04-15T09:25:38;20.52;;;7.90;;
20124;SDS011;10223;50.862;4.360;2023-04-15T09:28:12;14.02;;;6.70;;
20124;SDS011;10223;50.862;4.360;2023-04-15T09:30:41;13.77;;;7.25;;
20124;SDS011;10223;50.862;4.360;2023-04-15T09:33:10;12.00;;;7.18;;
20124;SDS011;10223;50.862;4.360;2023-04-15T09:35:40;10.77;;;6.20;;
20124;SDS011;10223;50.862;4.360;2023-04-15T09:38:07;8.95;;;5.40;;
20124;SDS011;10223;50.862;4.360;2023-04-15T09:40:36;10.95;;;6.00;;
20124;SDS011;10223;50.862;4.360;2023-04-15T09:43:05;8.73;;;5.30;;
20124;SDS011;10223;50.862;4.360;2023-04-15T09:45:35;7.30;;;4.88;;
20124;SDS011;10223;50.862;4.360;2023-04-15T09:48:13;8.45;;;4.65;;
20124;SDS011;10223;50.862;4.360;2023-04-15T09:50:42;8.27;;;4.50;;
20124;SDS011;10223;50.862;4.360;2023-04-15T09:53:09;10.52;;;4.63;;
20124;SDS011;10223;50.862;4.360;2023-04-15T09:55:36;7.55;;;4.78;;
20124;SDS011;10223;50.862;4.360;2023-04-15T09:58:07;9.90;;;5.45;;
20124;SDS011;10223;50.862;4.360;2023-04-15T10:00:37;10.35;;;5.63;;
20124;SDS011;10223;50.862;4.360;2023-04-15T10:03:04;7.32;;;5.20;;
20124;SDS011;10223;50.862;4.360;2023-04-15T10:05:32;7.47;;;5.03;;
20124;SDS011;10223;50.862;4.360;2023-04-15T10:07:59;10.15;;;5.80;;
20124;SDS011;10223;50.862;4.360;2023-04-15T10:10:28;8.70;;;5.55;;
20124;SDS011;10223;50.862;4.360;2023-04-15T10:12:57;13.15;;;5.82;;
20124;SDS011;10223;50.862;4.360;2023-04-15T10:15:24;10.57;;;6.40;;
20124;SDS011;10223;50.862;4.360;2023-04-15T10:17:56;13.23;;;6.90;;
20124;SDS011;10223;50.862;4.360;2023-04-15T10:20:25;9.27;;;6.03;;
20124;SDS011;10223;50.862;4.360;2023-04-15T10:22:54;6.53;;;5.20;;
20124;SDS011;10223;50.862;4.360;2023-04-15T10:25:21;10.98;;;5.10;;
20124;SDS011;10223;50.862;4.360;2023-04-15T10:27:51;8.65;;;5.63;;
20124;SDS011;10223;50.862;4.360;2023-04-15T10:30:18;9.23;;;5.38;;
20124;SDS011;10223;50.862;4.360;2023-04-15T10:32:46;15.52;;;4.93;;
20124;SDS011;10223;50.862;4.360;2023-04-15T10:35:15;7.38;;;4.03;;
20124;SDS011;10223;50.862;4.360;2023-04-15T10:37:43;6.88;;;4.05;;
20124;SDS011;10223;50.862;4.360;2023-04-15T10:40:22;7.97;;;4.30;;
20124;SDS011;10223;50.862;4.360;2023-04-15T10:42:51;9.32;;;3.80;;
20124;SDS011;10223;50.862;4.360;2023-04-15T10:45:20;9.30;;;4.00;;
20124;SDS011;10223;50.862;4.360;2023-04-15T10:47:50;5.63;;;3.63;;
20124;SDS011;10223;50.862;4.360;2023-04-15T10:50:21;6.40;;;3.20;;
20124;SDS011;10223;50.862;4.360;2023-04-15T10:52:51;6.78;;;3.55;;
20124;SDS011;10223;50.862;4.360;2023-04-15T10:55:19;7.93;;;2.80;;
20124;SDS011;10223;50.862;4.360;2023-04-15T10:57:50;6.65;;;2.45;;
20124;SDS011;10223;50.862;4.360;2023-04-15T11:00:19;6.80;;;2.90;;
20124;SDS011;10223;50.862;4.360;2023-04-15T11:02:51;3.33;;;2.03;;
20124;SDS011;10223;50.862;4.360;2023-04-15T11:05:47;7.05;;;3.60;;
20124;SDS011;10223;50.862;4.360;2023-04-15T11:08:16;5.57;;;2.10;;
20124;SDS011;10223;50.862;4.360;2023-04-15T11:10:52;10.82;;;3.33;;
20124;SDS011;10223;50.862;4.360;2023-04-15T11:13:25;6.57;;;3.10;;
20124;SDS011;10223;50.862;4.360;2023-04-15T11:15:58;12.25;;;3.70;;
20124;SDS011;10223;50.862;4.360;2023-04-15T11:18:27;6.10;;;3.22;;
20124;SDS011;10223;50.862;4.360;2023-04-15T11:21:00;4.88;;;2.75;;
20124;SDS011;10223;50.862;4.360;2023-04-15T11:23:33;10.23;;;2.90;;
20124;SDS011;10223;50.862;4.360;2023-04-15T11:26:02;5.63;;;2.88;;
20124;SDS011;10223;50.862;4.360;2023-04-15T11:28:33;5.13;;;2.90;;
20124;SDS011;10223;50.862;4.360;2023-04-15T11:31:07;6.03;;;3.35;;
20124;SDS011;10223;50.862;4.360;2023-04-15T11:33:37;5.20;;;3.25;;
20124;SDS011;10223;50.862;4.360;2023-04-15T11:36:16;6.60;;;3.58;;
20124;SDS011;10223;50.862;4.360;2023-04-15T11:38:45;4.32;;;2.97;;
20124;SDS011;10223;50.862;4.360;2023-04-15T11:41:13;4.88;;;2.70;;
20124;SDS011;10223;50.862;4.360;2023-04-15T11:43:41;3.90;;;2.42;;
20124;SDS011;10223;50.862;4.360;2023-04-15T11:46:08;4.60;;;1.80;;
20124;SDS011;10223;50.862;4.360;2023-04-15T11:48:35;3.55;;;2.22;;
20124;SDS011;10223;50.862;4.360;2023-04-15T11:51:02;7.35;;;2.53;;
20124;SDS011;10223;50.862;4.360;2023-04-15T11:53:39;5.65;;;2.58;;
20124;SDS011;10223;50.862;4.360;2023-04-15T11:56:07;4.32;;;2.95;;
20124;SDS011;10223;50.862;4.360;2023-04-15T11:58:35;5.47;;;2.70;;
20124;SDS011;10223;50.862;4.360;2023-04-15T12:01:03;5.47;;;2.70;;
20124;SDS011;10223;50.862;4.360;2023-04-15T12:03:35;5.68;;;2.20;;
20124;SDS011;10223;50.862;4.360;2023-04-15T12:06:07;8.25;;;2.58;;
20124;SDS011;10223;50.862;4.360;2023-04-15T12:08:56;14.48;;;3.17;;
20124;SDS011;10223;50.862;4.360;2023-04-15T12:11:33;3.92;;;2.25;;
20124;SDS011;10223;50.862;4.360;2023-04-15T12:14:06;3.10;;;2.35;;
20124;SDS011;10223;50.862;4.360;2023-04-15T12:16:35;4.47;;;2.55;;
20124;SDS011;10223;50.862;4.360;2023-04-15T12:19:04;4.25;;;2.60;;
20124;SDS011;10223;50.862;4.360;2023-04-15T12:21:33;5.05;;;2.65;;
20124;SDS011;10223;50.862;4.360;2023-04-15T12:24:04;5.20;;;2.83;;
20124;SDS011;10223;50.862;4.360;2023-04-15T12:26:32;4.53;;;2.30;;
20124;SDS011;10223;50.862;4.360;2023-04-15T12:29:02;8.30;;;2.72;;
20124;SDS011;10223;50.862;4.360;2023-04-15T12:31:32;9.70;;;3.63;;
20124;SDS011;10223;50.862;4.360;2023-04-15T12:34:01;13.50;;;5.03;;
20124;SDS011;10223;50.862;4.360;2023-04-15T12:36:29;4.15;;;2.50;;
20124;SDS011;10223;50.862;4.360;2023-04-15T12:39:00;5.10;;;1.90;;
20124;SDS011;10223;50.862;4.360;2023-04-15T12:41:31;3.20;;;1.83;;
20124;SDS011;10223;50.862;4.360;2023-04-15T12:43:58;6.93;;;2.45;;
20124;SDS011;10223;50.862;4.360;2023-04-15T12:46:26;5.90;;;2.00;;
20124;SDS011;10223;50.862;4.360;2023-04-15T12:48:53;3.00;;;2.10;;
20124;SDS011;10223;50.862;4.360;2023-04-15T12:51:20;3.67;;;2.13;;
20124;SDS011;10223;50.862;4.360;2023-04-15T12:53:47;5.88;;;1.95;;
20124;SDS011;10223;50.862;4.360;2023-04-15T12:56:16;3.85;;;1.70;;
20124;SDS011;10223;50.862;4.360;2023-04-15T12:58:43;4.93;;;1.45;;
20124;SDS011;10223;50.862;4.360;2023-04-15T13:01:10;2.85;;;1.23;;
20124;SDS011;10223;50.862;4.360;2023-04-15T13:03:41;3.88;;;2.00;;
20124;SDS011;10223;50.862;4.360;2023-04-15T13:06:08;6.18;;;2.88;;
20124;SDS011;10223;50.862;4.360;2023-04-15T13:08:35;6.57;;;2.88;;
20124;SDS011;10223;50.862;4.360;2023-04-15T13:11:02;4.38;;;2.15;;
20124;SDS011;10223;50.862;4.360;2023-04-15T13:13:31;7.05;;;2.35;;
20124;SDS011;10223;50.862;4.360;2023-04-15T13:15:58;3.80;;;1.90;;
20124;SDS011;10223;50.862;4.360;2023-04-15T13:18:25;4.57;;;2.05;;
20124;SDS011;10223;50.862;4.360;2023-04-15T13:20:53;4.50;;;2.05;;
20124;SDS011;10223;50.862;4.360;2023-04-15T13:23:20;5.65;;;2.40;;
20124;SDS011;10223;50.862;4.360;2023-04-15T13:25:47;3.50;;;2.05;;
20124;SDS011;10223;50.862;4.360;2023-04-15T13:28:14;4.88;;;2.65;;
20124;SDS011;10223;50.862;4.360;2023-04-15T13:30:43;5.03;;;2.42;;
20124;SDS011;10223;50.862;4.360;2023-04-15T13:33:10;5.38;;;3.17;;
20124;SDS011;10223;50.862;4.360;2023-04-15T13:35:37;6.35;;;3.10;;
20124;SDS011;10223;50.862;4.360;2023-04-15T13:38:05;5.40;;;2.60;;
20124;SDS011;10223;50.862;4.360;2023-04-15T13:40:32;4.97;;;2.08;;
20124;SDS011;10223;50.862;4.360;2023-04-15T13:42:59;5.38;;;2.20;;
20124;SDS011;10223;50.862;4.360;2023-04-15T13:45:27;3.97;;;1.80;;
20124;SDS011;10223;50.862;4.360;2023-04-15T13:47:55;2.63;;;1.85;;
20124;SDS011;10223;50.862;4.360;2023-04-15T13:50:22;5.90;;;2.25;;
20124;SDS011;10223;50.862;4.360;2023-04-15T13:52:49;6.00;;;2.10;;
20124;SDS011;10223;50.862;4.360;2023-04-15T13:55:16;9.98;;;2.67;;
20124;SDS011;10223;50.862;4.360;2023-04-15T13:57:43;5.70;;;2.63;;
20124;SDS011;10223;50.862;4.360;2023-04-15T14:00:11;3.85;;;2.17;;
20124;SDS011;10223;50.862;4.360;2023-04-15T14:02:39;2.67;;;1.65;;
20124;SDS011;10223;50.862;4.360;2023-04-15T14:05:08;5.80;;;2.25;;
20124;SDS011;10223;50.862;4.360;2023-04-15T14:07:35;4.30;;;1.70;;
20124;SDS011;10223;50.862;4.360;2023-04-15T14:10:03;3.83;;;1.75;;
20124;SDS011;10223;50.862;4.360;2023-04-15T14:12:30;4.53;;;2.40;;
20124;SDS011;10223;50.862;4.360;2023-04-15T14:14:57;5.82;;;2.47;;
20124;SDS011;10223;50.862;4.360;2023-04-15T14:17:24;6.13;;;2.28;;
20124;SDS011;10223;50.862;4.360;2023-04-15T14:19:51;4.55;;;2.45;;
20124;SDS011;10223;50.862;4.360;2023-04-15T14:22:19;6.22;;;2.30;;
20124;SDS011;10223;50.862;4.360;2023-04-15T14:24:46;14.45;;;2.50;;
20124;SDS011;10223;50.862;4.360;2023-04-15T14:27:13;7.55;;;2.38;;
20124;SDS011;10223;50.862;4.360;2023-04-15T14:29:40;3.00;;;1.60;;
20124;SDS011;10223;50.862;4.360;2023-04-15T14:32:07;4.80;;;1.30;;
20124;SDS011;10223;50.862;4.360;2023-04-15T14:34:34;4.15;;;1.33;;
20124;SDS011;10223;50.862;4.360;2023-04-15T14:37:01;3.38;;;1.10;;
20124;SDS011;10223;50.862;4.360;2023-04-15T14:39:30;3.20;;;1.00;;
20124;SDS011;10223;50.862;4.360;2023-04-15T14:41:57;3.22;;;1.05;;
20124;SDS011;10223;50.862;4.360;2023-04-15T14:44:27;2.85;;;1.10;;
20124;SDS011;10223;50.862;4.360;2023-04-15T14:46:54;2.97;;;1.30;;